Time;durP1;ratioP1;P1;durP2;ratioP2;P2;SDS_P1;SDS_P2;PMS_P1;PMS_P2;Temp;Humidity;BMP_temperature;BMP_pressure;BME280_temperature;BME280_humidity;BME280_pressure;Samples;Min_cycle;Max_cycle;Signal;HPM_P1;HPM_P2
2023/11/06 00:01:39;;;;;;;0.40;0.20;;;;;;;11.37;75.29;96395.45;108589;1260;73693;-86
2023/11/06 00:04:06;;;;;;;0.40;0.30;;;;;;;11.39;75.14;96409.98;108721;1260;73695;-86
2023/11/06 00:06:33;;;;;;;0.40;0.30;;;;;;;11.39;75.12;96404.04;108561;1260;71296;-86
2023/11/06 00:09:03;;;;;;;0.60;0.60;;;;;;;11.41;75.19;96408.46;108624;1260;62006;-86
2023/11/06 00:11:30;;;;;;;0.50;0.30;;;;;;;11.43;74.92;96418.92;108720;1260;60261;-86
2023/11/06 00:13:59;;;;;;;0.40;0.40;;;;;;;11.43;74.81;96421.23;108738;1260;72957;-87
2023/11/06 00:20:11;;;;;;;0.40;0.20;;;;;;;11.42;74.57;96436.16;108575;1260;72887;-88
2023/11/06 00:22:44;;;;;;;0.40;0.40;;;;;;;11.41;74.68;96440.55;108700;1260;60951;-88
2023/11/06 00:25:12;;;;;;;0.50;0.40;;;;;;;11.41;74.60;96444.52;108726;1260;60012;-88
2023/11/06 00:27:39;;;;;;;0.60;0.40;;;;;;;11.40;74.63;96450.86;108737;1261;72925;-87
2023/11/06 00:30:07;;;;;;;0.30;0.30;;;;;;;11.40;74.63;96457.38;108784;1260;74277;-87
2023/11/06 00:32:35;;;;;;;0.80;0.40;;;;;;;11.39;74.56;96463.05;108738;1260;71631;-88
2023/11/06 00:35:03;;;;;;;0.40;0.40;;;;;;;11.38;74.49;96468.63;108776;1260;61049;-87
2023/11/06 00:37:31;;;;;;;1.40;0.30;;;;;;;11.38;74.59;96470.65;108709;1260;62492;-87
2023/11/06 00:39:58;;;;;;;0.90;0.30;;;;;;;11.38;74.49;96478.91;108581;1260;73443;-87
2023/11/06 00:42:26;;;;;;;0.40;0.40;;;;;;;11.37;74.42;96481.35;108726;1260;72456;-88
2023/11/06 00:44:53;;;;;;;0.40;0.40;;;;;;;11.36;74.48;96480.02;108584;1260;73416;-87
2023/11/06 00:47:20;;;;;;;2.60;0.50;;;;;;;11.35;74.57;96479.59;108568;1260;60708;-87
2023/11/06 00:49:47;;;;;;;0.80;0.40;;;;;;;11.34;74.56;96480.39;108709;1260;59273;-87
2023/11/06 00:52:14;;;;;;;0.40;0.40;;;;;;;11.33;74.64;96479.08;108746;1260;71769;-88
2023/11/06 00:54:42;;;;;;;0.60;0.50;;;;;;;11.31;74.76;96491.13;108700;1260;74257;-87
2023/11/06 00:57:09;;;;;;;0.80;0.50;;;;;;;11.29;74.77;96491.48;108701;1260;70746;-88
2023/11/06 00:59:36;;;;;;;1.80;0.90;;;;;;;11.28;74.93;96489.27;108670;1260;61958;-87
2023/11/06 01:02:04;;;;;;;1.40;1.20;;;;;;;11.27;74.88;96493.08;108611;1260;60063;-87
2023/11/06 01:04:31;;;;;;;1.90;0.80;;;;;;;11.26;75.02;96497.73;108762;1260;73032;-86
2023/11/06 01:06:59;;;;;;;0.90;0.50;;;;;;;11.25;75.08;96499.95;108594;1260;73195;-86
2023/11/06 01:09:26;;;;;;;0.90;0.60;;;;;;;11.24;75.23;96499.31;108870;1260;72601;-87
2023/11/06 01:11:53;;;;;;;1.00;0.60;;;;;;;11.23;75.23;96505.36;108891;1260;60807;-86
2023/11/06 01:14:20;;;;;;;0.90;0.50;;;;;;;11.23;75.29;96508.24;108765;1260;59993;-87
2023/11/06 01:16:48;;;;;;;1.00;0.60;;;;;;;11.21;75.25;96503.33;108914;1260;73678;-86
2023/11/06 01:19:15;;;;;;;1.80;1.00;;;;;;;11.20;75.20;96506.34;108892;1260;73356;-88
2023/11/06 01:21:42;;;;;;;0.70;0.50;;;;;;;11.18;75.12;96509.61;108751;1260;70733;-87
2023/11/06 01:24:11;;;;;;;1.00;0.50;;;;;;;11.16;75.20;96511.75;108573;1260;60461;-87
2023/11/06 01:26:42;;;;;;;1.00;0.70;;;;;;;11.15;75.25;96511.33;108683;1260;59063;-88
2023/11/06 01:29:11;;;;;;;3.80;1.30;;;;;;;11.14;75.28;96511.46;108761;1260;74800;-87
2023/11/06 01:31:38;;;;;;;7.00;2.20;;;;;;;11.13;75.28;96511.49;108527;1260;74366;-88
2023/11/06 01:34:06;;;;;;;7.20;1.80;;;;;;;11.13;75.56;96513.85;108709;1260;72578;-88
2023/11/06 01:36:33;;;;;;;6.30;2.20;;;;;;;11.12;75.49;96517.90;108631;1260;61604;-88
2023/11/06 01:39:00;;;;;;;5.20;1.40;;;;;;;11.12;75.58;96519.88;108685;1260;60234;-88
2023/11/06 01:41:28;;;;;;;3.00;1.40;;;;;;;11.12;75.84;96525.42;108648;1262;73739;-87
2023/11/06 01:43:56;;;;;;;3.30;1.80;;;;;;;11.12;75.96;96525.62;108776;1260;72816;-88
2023/11/06 01:46:23;;;;;;;4.00;1.10;;;;;;;11.12;75.94;96521.52;108766;1260;71509;-87
2023/11/06 01:48:50;;;;;;;1.00;0.50;;;;;;;11.13;76.16;96521.94;108707;1260;62809;-87
2023/11/06 01:51:17;;;;;;;2.80;1.20;;;;;;;11.13;76.18;96516.15;108714;1260;59319;-87
2023/11/06 01:53:45;;;;;;;3.10;1.20;;;;;;;11.14;76.34;96524.45;108639;1260;74272;-87
2023/11/06 01:56:12;;;;;;;2.30;0.70;;;;;;;11.15;76.26;96532.42;108531;1260;75289;-87
2023/11/06 01:58:39;;;;;;;1.00;0.60;;;;;;;11.16;76.31;96538.80;108575;1260;70871;-87
2023/11/06 02:01:08;;;;;;;1.70;0.70;;;;;;;11.18;76.39;96544.71;108696;1260;61613;-88
2023/11/06 02:03:35;;;;;;;1.30;0.60;;;;;;;11.19;76.33;96548.69;108617;1261;59637;-87
2023/11/06 02:06:03;;;;;;;1.20;0.60;;;;;;;11.22;76.25;96549.85;108667;1260;72411;-86
2023/11/06 02:08:32;;;;;;;0.70;0.70;;;;;;;11.26;76.25;96557.05;108533;1261;74576;-87
2023/11/06 02:11:01;;;;;;;3.10;0.40;;;;;;;11.28;76.18;96551.23;108735;1260;71472;-86
2023/11/06 02:13:29;;;;;;;0.50;0.50;;;;;;;11.30;76.27;96553.94;108615;1260;133729;-87
2023/11/06 02:15:56;;;;;;;1.20;0.50;;;;;;;11.31;76.23;96558.52;108620;1260;59574;-87
2023/11/06 02:18:24;;;;;;;0.70;0.50;;;;;;;11.31;76.19;96561.14;108608;1260;72835;-87
2023/11/06 02:20:55;;;;;;;0.60;0.50;;;;;;;11.30;76.27;96570.34;108727;1260;74308;-87
2023/11/06 02:23:24;;;;;;;0.90;0.60;;;;;;;11.30;76.26;96566.58;108717;1260;72834;-87
2023/11/06 02:25:51;;;;;;;0.60;0.60;;;;;;;11.31;76.38;96564.77;108703;1260;61970;-87
2023/11/06 02:28:18;;;;;;;2.40;0.60;;;;;;;11.31;76.32;96567.80;108651;1260;59436;-87
2023/11/06 02:30:45;;;;;;;0.50;0.50;;;;;;;11.30;76.45;96566.10;108740;1260;73839;-87
2023/11/06 02:33:12;;;;;;;0.50;0.50;;;;;;;11.30;76.41;96578.12;108742;1260;73111;-87
2023/11/06 02:35:40;;;;;;;0.60;0.50;;;;;;;11.30;76.58;96582.42;108700;1260;72606;-86
2023/11/06 02:38:07;;;;;;;0.40;0.40;;;;;;;11.29;76.57;96576.38;108691;1260;60697;-88
2023/11/06 02:40:35;;;;;;;0.60;0.60;;;;;;;11.30;76.64;96584.54;108779;1260;58837;-87
2023/11/06 02:43:02;;;;;;;0.40;0.30;;;;;;;11.29;76.73;96589.61;108911;1260;72901;-87
2023/11/06 02:45:29;;;;;;;0.30;0.30;;;;;;;11.30;76.95;96587.80;108952;1260;74307;-87
2023/11/06 02:47:56;;;;;;;0.90;0.50;;;;;;;11.29;77.02;96593.20;108844;1260;72470;-88
2023/11/06 02:50:23;;;;;;;0.80;0.50;;;;;;;11.29;77.18;96605.79;108828;1260;61561;-88
2023/11/06 02:52:50;;;;;;;0.30;0.30;;;;;;;11.28;77.20;96612.17;108760;1260;59009;-87
2023/11/06 02:55:18;;;;;;;1.00;0.60;;;;;;;11.27;77.33;96622.23;108407;1260;72831;-87
2023/11/06 02:57:45;;;;;;;0.60;0.30;;;;;;;11.26;77.49;96640.27;108748;1260;73330;-87
2023/11/06 03:00:13;;;;;;;0.30;0.30;;;;;;;11.25;77.70;96650.08;108722;1260;72276;-86
2023/11/06 03:02:41;;;;;;;0.40;0.40;;;;;;;11.24;77.80;96645.20;108698;1260;60927;-87
2023/11/06 03:05:08;;;;;;;0.40;0.40;;;;;;;11.22;77.90;96653.39;108725;1260;59049;-87
2023/11/06 03:07:35;;;;;;;0.30;0.30;;;;;;;11.22;77.94;96651.63;108649;1260;72526;-87
2023/11/06 03:10:03;;;;;;;2.50;0.50;;;;;;;11.21;78.14;96659.56;108623;1260;74406;-87
2023/11/06 03:12:30;;;;;;;1.00;0.40;;;;;;;11.22;77.96;96670.98;108724;1260;71501;-87
2023/11/06 03:14:57;;;;;;;0.40;0.40;;;;;;;11.22;77.85;96665.61;108775;1260;61962;-87
2023/11/06 03:17:25;;;;;;;0.40;0.40;;;;;;;11.24;78.00;96666.54;108763;1260;59338;-87
2023/11/06 03:19:52;;;;;;;0.60;0.50;;;;;;;11.24;78.07;96671.90;108904;1260;72505;-88
2023/11/06 03:22:20;;;;;;;0.40;0.40;;;;;;;11.24;78.20;96681.92;108699;1260;73225;-87
2023/11/06 03:24:47;;;;;;;0.80;0.70;;;;;;;11.23;78.37;96687.77;108758;1260;73107;-88
2023/11/06 03:27:14;;;;;;;0.60;0.50;;;;;;;11.21;78.37;96690.20;108699;1260;62013;-88
2023/11/06 03:29:41;;;;;;;1.00;0.50;;;;;;;11.19;78.40;96699.00;108606;1260;59232;-87
2023/11/06 03:32:08;;;;;;;0.40;0.40;;;;;;;11.18;78.39;96703.96;108614;1260;74995;-88
2023/11/06 03:34:35;;;;;;;0.50;0.50;;;;;;;11.16;78.51;96706.15;108633;1260;74403;-87
2023/11/06 03:37:03;;;;;;;1.10;0.50;;;;;;;11.14;78.38;96709.73;108592;1260;72692;-87
2023/11/06 03:39:30;;;;;;;0.60;0.60;;;;;;;11.13;78.31;96705.73;108756;1260;61792;-87
2023/11/06 03:41:57;;;;;;;0.70;0.40;;;;;;;11.12;78.42;96713.67;108923;1260;58935;-87
2023/11/06 03:44:26;;;;;;;1.70;0.50;;;;;;;11.10;78.28;96723.73;108975;1260;74229;-86
2023/11/06 03:46:53;;;;;;;1.60;0.50;;;;;;;11.09;78.26;96725.32;108757;1260;74334;-87
2023/11/06 03:49:21;;;;;;;0.80;0.50;;;;;;;11.08;78.29;96724.80;108652;1260;71452;-86
2023/11/06 03:51:48;;;;;;;0.50;0.50;;;;;;;11.08;78.30;96719.09;108669;1260;60714;-87
2023/11/06 03:54:15;;;;;;;0.60;0.50;;;;;;;11.08;78.17;96724.80;108888;1260;60256;-85
2023/11/06 03:56:42;;;;;;;2.50;0.60;;;;;;;11.08;77.88;96733.41;108893;1260;72523;-85
2023/11/06 03:59:09;;;;;;;2.40;1.20;;;;;;;11.08;77.97;96730.17;108887;1260;72857;-86
2023/11/06 04:01:36;;;;;;;1.00;0.60;;;;;;;11.08;78.01;96737.52;108891;1261;70139;-86
2023/11/06 04:04:04;;;;;;;1.00;0.70;;;;;;;11.06;78.28;96736.46;108794;1260;60419;-87
2023/11/06 04:06:31;;;;;;;2.60;1.10;;;;;;;11.05;78.24;96736.95;108657;1260;59136;-87
2023/11/06 04:08:58;;;;;;;1.30;1.00;;;;;;;11.04;78.43;96746.55;108626;1260;73992;-87
2023/11/06 04:11:25;;;;;;;0.80;0.50;;;;;;;11.02;78.31;96755.13;108676;1260;74181;-87
2023/11/06 04:13:53;;;;;;;0.90;0.60;;;;;;;11.01;78.43;96758.23;108719;1260;72720;-87
2023/11/06 04:16:20;;;;;;;0.80;0.70;;;;;;;11.00;78.36;96757.63;108693;1260;60907;-86
2023/11/06 04:18:47;;;;;;;0.70;0.50;;;;;;;11.00;78.41;96763.75;108733;1260;61318;-87
2023/11/06 04:21:16;;;;;;;0.90;0.80;;;;;;;11.00;78.23;96774.83;108728;1260;72287;-87
2023/11/06 04:23:43;;;;;;;0.90;0.70;;;;;;;10.99;78.31;96780.83;108770;1260;73385;-87
2023/11/06 04:26:11;;;;;;;2.30;0.90;;;;;;;10.98;78.41;96786.54;108656;1260;72660;-88
2023/11/06 04:28:38;;;;;;;1.40;0.80;;;;;;;10.96;78.40;96795.52;108804;1260;63097;-88
2023/11/06 04:31:06;;;;;;;1.40;1.00;;;;;;;10.94;78.41;96798.54;108895;1260;61438;-87
2023/11/06 04:33:33;;;;;;;0.70;0.70;;;;;;;10.93;78.43;96799.54;108822;1260;71437;-87
2023/11/06 04:36:00;;;;;;;0.70;0.70;;;;;;;10.92;78.55;96805.60;108918;1260;74296;-87
2023/11/06 04:38:27;;;;;;;1.70;0.70;;;;;;;10.89;78.71;96811.72;108928;1260;71573;-87
2023/11/06 04:40:54;;;;;;;1.30;0.90;;;;;;;10.88;78.76;96822.64;108798;1260;61777;-87
2023/11/06 04:43:22;;;;;;;0.90;0.60;;;;;;;10.85;78.93;96828.04;108900;1261;59016;-86
2023/11/06 04:45:49;;;;;;;3.40;0.90;;;;;;;10.83;79.07;96836.23;108812;1260;72583;-85
2023/11/06 04:48:16;;;;;;;3.10;1.50;;;;;;;10.82;79.13;96838.73;108668;1261;74343;-86
2023/11/06 04:50:43;;;;;;;0.80;0.70;;;;;;;10.80;79.27;96846.00;108736;1260;73827;-85
2023/11/06 04:53:10;;;;;;;1.00;0.80;;;;;;;10.80;79.24;96846.57;108734;1260;61922;-84
2023/11/06 04:55:37;;;;;;;1.40;0.90;;;;;;;10.80;79.40;96845.89;108675;1260;60307;-85
2023/11/06 04:58:05;;;;;;;1.40;0.90;;;;;;;10.80;79.41;96848.92;108707;1262;72467;-86
2023/11/06 05:00:32;;;;;;;0.90;0.90;;;;;;;10.80;79.45;96847.50;108723;1261;74218;-86
2023/11/06 05:02:59;;;;;;;0.70;0.70;;;;;;;10.80;79.38;96850.02;108702;1260;72989;-85
2023/11/06 05:05:27;;;;;;;0.80;0.70;;;;;;;10.78;79.44;96858.08;108644;1260;61753;-85
2023/11/06 05:07:55;;;;;;;0.80;0.80;;;;;;;10.76;79.57;96867.61;108788;1261;59361;-85
2023/11/06 05:10:22;;;;;;;0.90;0.90;;;;;;;10.73;79.50;96869.06;108744;1260;72985;-87
2023/11/06 05:12:49;;;;;;;0.60;0.60;;;;;;;10.71;79.49;96871.77;108793;1260;74403;-86
2023/11/06 05:15:16;;;;;;;0.70;0.70;;;;;;;10.72;79.58;96877.48;108684;1260;71987;-87
2023/11/06 05:17:43;;;;;;;0.90;0.70;;;;;;;10.70;79.58;96885.67;108893;1260;60991;-85
2023/11/06 05:20:12;;;;;;;1.40;1.10;;;;;;;10.69;79.65;96889.35;108753;1261;60092;-87
2023/11/06 05:22:39;;;;;;;2.10;1.90;;;;;;;10.68;79.64;96885.90;108774;1260;74657;-86
2023/11/06 05:25:08;;;;;;;2.50;2.30;;;;;;;10.67;79.66;96893.33;108719;1261;73304;-87
2023/11/06 05:27:35;;;;;;;1.00;1.00;;;;;;;10.66;79.85;96888.25;108705;1261;71260;-87
2023/11/06 05:30:04;;;;;;;1.40;1.30;;;;;;;10.63;79.74;96903.11;108641;1261;60351;-86
2023/11/06 05:32:31;;;;;;;2.30;1.30;;;;;;;10.63;79.82;96911.27;108643;1260;59263;-87
2023/11/06 05:35:00;;;;;;;3.40;2.60;;;;;;;10.63;80.09;96909.08;108719;1261;74123;-86
2023/11/06 05:37:28;;;;;;;6.00;1.90;;;;;;;10.63;80.03;96913.94;108652;1260;74113;-85
2023/11/06 05:39:55;;;;;;;1.50;1.00;;;;;;;10.61;80.11;96924.09;108576;1260;71427;-84
2023/11/06 05:42:22;;;;;;;3.00;1.40;;;;;;;10.61;80.25;96924.80;108715;1261;59793;-85
2023/11/06 05:44:49;;;;;;;2.40;1.00;;;;;;;10.62;80.16;96940.25;108693;1260;58939;-86
2023/11/06 05:47:16;;;;;;;2.00;1.80;;;;;;;10.64;80.08;96945.16;108696;1260;72032;-85
2023/11/06 05:49:43;;;;;;;2.20;1.80;;;;;;;10.64;80.15;96955.65;108728;1260;74855;-85
2023/11/06 05:52:10;;;;;;;1.00;0.90;;;;;;;10.65;80.29;96960.58;108594;1260;73659;-86
2023/11/06 05:54:38;;;;;;;1.70;1.20;;;;;;;10.67;80.19;96969.96;107398;1264;61813;-83
2023/11/06 05:57:05;;;;;;;0.80;0.80;;;;;;;10.68;80.25;96974.45;108508;1260;59955;-84
2023/11/06 05:59:32;;;;;;;1.20;0.90;;;;;;;10.69;80.22;96982.63;108597;1260;73773;-84
2023/11/06 06:01:59;;;;;;;0.70;0.70;;;;;;;10.70;80.41;96990.79;108544;1261;74287;-84
2023/11/06 06:04:26;;;;;;;0.90;0.80;;;;;;;10.70;80.24;96991.13;108519;1260;73337;-83
2023/11/06 06:06:55;;;;;;;1.90;0.70;;;;;;;10.70;80.24;97004.92;108534;1260;61930;-83
2023/11/06 06:09:22;;;;;;;0.90;0.80;;;;;;;10.70;80.29;97016.17;108591;1261;61083;-82
2023/11/06 06:11:49;;;;;;;0.80;0.70;;;;;;;10.71;80.16;97015.23;108389;1260;72641;-81
2023/11/06 06:14:16;;;;;;;0.80;0.80;;;;;;;10.71;80.16;97020.56;108536;1262;75445;-83
2023/11/06 06:16:48;;;;;;;2.20;0.50;;;;;;;10.72;80.08;97023.76;108658;1260;72617;-84
2023/11/06 06:19:16;;;;;;;1.30;0.70;;;;;;;10.72;79.87;97029.06;108609;1260;61339;-84
2023/11/06 06:21:43;;;;;;;1.40;1.10;;;;;;;10.73;79.77;97038.15;108511;1262;59136;-85
2023/11/06 06:24:11;;;;;;;1.50;0.90;;;;;;;10.75;79.74;97040.98;108483;1261;74131;-84
2023/11/06 06:26:38;;;;;;;3.00;1.20;;;;;;;10.77;79.76;97046.31;108583;1260;75039;-82
2023/11/06 06:29:06;;;;;;;1.60;1.10;;;;;;;10.79;79.57;97045.98;108510;1261;70836;-85
2023/11/06 06:31:37;;;;;;;1.40;0.70;;;;;;;10.82;79.50;97049.80;108586;1265;60709;-84
2023/11/06 06:34:04;;;;;;;2.50;0.60;;;;;;;10.85;79.45;97053.31;108649;1261;59154;-84
2023/11/06 06:36:31;;;;;;;1.40;0.70;;;;;;;10.88;79.25;97057.05;108378;1260;72673;-85
2023/11/06 06:38:58;;;;;;;0.80;0.80;;;;;;;10.91;78.91;97054.61;108613;1261;73002;-84
2023/11/06 06:41:26;;;;;;;1.00;0.70;;;;;;;10.94;78.95;97060.20;108192;1260;72621;-84
2023/11/06 06:43:53;;;;;;;1.60;0.90;;;;;;;10.97;78.53;97059.38;108199;1260;61755;-84
2023/11/06 06:46:25;;;;;;;2.00;0.90;;;;;;;11.00;78.05;97067.99;108230;1261;59448;-84
2023/11/06 06:48:52;;;;;;;1.80;0.60;;;;;;;11.04;77.58;97074.64;108669;1261;72722;-84
2023/11/06 06:51:20;;;;;;;1.80;0.80;;;;;;;11.09;77.49;97085.16;108603;1260;74836;-83
2023/11/06 06:53:49;;;;;;;2.00;0.70;;;;;;;11.13;76.93;97086.52;108567;1261;71050;-84
2023/11/06 06:56:17;;;;;;;0.60;0.60;;;;;;;11.17;76.38;97093.00;108563;1261;60357;-83
2023/11/06 06:58:44;;;;;;;0.50;0.50;;;;;;;11.22;76.09;97099.73;108577;1260;59174;-85
2023/11/06 07:01:13;;;;;;;0.90;0.60;;;;;;;11.26;75.72;97097.42;108493;1262;73716;-84
2023/11/06 07:03:41;;;;;;;1.20;0.80;;;;;;;11.29;75.76;97107.27;108448;1260;74317;-83
2023/11/06 07:06:19;;;;;;;0.50;0.50;;;;;;;11.32;75.29;97108.61;108559;1261;71621;-84
2023/11/06 07:09:21;;;;;;;0.90;0.80;;;;;;;11.38;74.81;97107.95;108435;1260;61708;-87
2023/11/06 07:12:25;;;;;;;;;;;;;;;;;;;;;
2023/11/06 07:14:58;;;;;;;1.50;0.40;;;;;;;11.46;73.68;97123.30;108484;1261;73638;-87
2023/11/06 07:17:25;;;;;;;1.00;0.50;;;;;;;11.48;73.10;97129.52;108484;1261;72274;-87
2023/11/06 07:19:52;;;;;;;0.60;0.50;;;;;;;11.53;72.61;97122.84;108650;1260;71422;-85
2023/11/06 07:22:27;;;;;;;0.60;0.50;;;;;;;11.57;72.32;97128.52;108728;1261;60639;-89
2023/11/06 07:24:54;;;;;;;2.20;0.60;;;;;;;11.61;72.10;97128.88;108595;1260;62620;-88
2023/11/06 07:27:30;;;;;;;1.30;0.90;;;;;;;11.65;71.98;97133.75;108433;1263;74997;-87
2023/11/06 07:29:57;;;;;;;0.60;0.50;;;;;;;11.68;71.74;97132.89;108564;1260;74384;-86
2023/11/06 07:32:24;;;;;;;1.60;0.60;;;;;;;11.72;70.94;97136.25;108614;1260;72776;-83
2023/11/06 07:34:54;;;;;;;2.50;0.40;;;;;;;11.76;70.21;97149.70;108478;1261;62850;-86
2023/11/06 07:37:25;;;;;;;1.50;0.50;;;;;;;11.80;68.89;97147.94;108598;1261;59484;-87
2023/11/06 07:39:53;;;;;;;1.70;0.50;;;;;;;11.85;68.31;97146.16;108666;1261;75373;-90
2023/11/06 07:42:21;;;;;;;0.80;0.60;;;;;;;11.89;68.02;97156.41;108754;1261;72921;-88
2023/11/06 07:44:48;;;;;;;0.40;0.40;;;;;;;11.92;67.79;97158.44;108434;1260;73130;-87
2023/11/06 07:47:15;;;;;;;0.60;0.40;;;;;;;11.96;67.03;97155.21;108592;1262;59098;-84
2023/11/06 07:49:42;;;;;;;0.70;0.50;;;;;;;12.00;66.96;97154.45;108564;1261;60358;-83
2023/11/06 07:52:10;;;;;;;1.20;0.70;;;;;;;12.05;65.82;97164.80;108655;1261;73777;-83
2023/11/06 07:54:40;;;;;;;0.70;0.60;;;;;;;12.09;65.06;97171.21;108615;1260;74593;-84
2023/11/06 07:57:11;;;;;;;1.00;0.70;;;;;;;12.14;64.93;97168.42;108469;1261;73355;-83
2023/11/06 07:59:41;;;;;;;2.50;0.60;;;;;;;12.19;64.50;97180.48;108478;1262;60978;-84
2023/11/06 08:02:10;;;;;;;0.70;0.50;;;;;;;12.23;63.21;97170.73;108294;1262;61036;-88
2023/11/06 08:04:40;;;;;;;1.20;0.40;;;;;;;12.29;62.92;97175.25;108435;1260;74678;-87
2023/11/06 08:07:11;;;;;;;3.00;0.60;;;;;;;12.33;61.41;97184.20;108346;1261;74807;-87
2023/11/06 08:09:39;;;;;;;1.50;0.40;;;;;;;12.37;60.76;97177.19;108503;1262;72573;-88
2023/11/06 08:12:09;;;;;;;0.40;0.40;;;;;;;12.42;60.63;97170.25;108501;1261;59161;-87
2023/11/06 08:14:37;;;;;;;1.50;0.70;;;;;;;12.46;60.72;97169.31;108614;1262;60168;-83
2023/11/06 08:17:04;;;;;;;1.20;0.70;;;;;;;12.51;60.25;97187.19;108633;1260;73474;-83
2023/11/06 08:19:38;;;;;;;1.50;0.50;;;;;;;12.53;59.02;97186.23;108490;1261;72490;-82
2023/11/06 08:22:08;;;;;;;0.30;0.30;;;;;;;12.56;58.04;97186.45;108603;1261;73343;-83
2023/11/06 08:24:37;;;;;;;2.10;0.40;;;;;;;12.58;57.77;97190.38;108482;1261;59043;-83
2023/11/06 08:27:06;;;;;;;0.70;0.50;;;;;;;12.60;57.23;97201.70;108537;1265;59209;-85
2023/11/06 08:29:33;;;;;;;0.70;0.30;;;;;;;12.62;57.09;97205.66;108553;1262;72713;-85
2023/11/06 08:32:01;;;;;;;1.20;0.30;;;;;;;12.63;56.68;97220.25;108590;1261;73126;-85
2023/11/06 08:34:29;;;;;;;0.50;0.50;;;;;;;12.64;56.51;97218.31;108398;1260;74209;-85
2023/11/06 08:36:56;;;;;;;0.60;0.60;;;;;;;12.67;56.92;97213.60;108533;1262;60721;-86
2023/11/06 08:39:23;;;;;;;0.50;0.40;;;;;;;12.69;56.41;97219.14;108348;1261;60156;-85
2023/11/06 08:41:50;;;;;;;0.50;0.50;;;;;;;12.72;56.19;97226.64;108636;1261;73747;-86
2023/11/06 08:44:18;;;;;;;0.80;0.70;;;;;;;12.74;55.92;97238.84;108501;1260;75834;-86
2023/11/06 08:46:48;;;;;;;1.20;1.00;;;;;;;12.76;55.83;97234.65;108151;1261;74075;-83
2023/11/06 08:49:18;;;;;;;1.20;0.90;;;;;;;12.79;56.00;97232.23;108458;1260;59564;-84
2023/11/06 08:51:50;;;;;;;1.00;0.60;;;;;;;12.82;56.21;97239.59;108471;1260;61050;-82
2023/11/06 08:54:18;;;;;;;0.20;0.20;;;;;;;12.85;55.56;97233.02;108493;1260;73551;-81
2023/11/06 08:56:44;;;;;;;2.20;0.50;;;;;;;12.89;54.93;97243.81;108379;1260;74284;-82
2023/11/06 08:59:12;;;;;;;1.70;0.20;;;;;;;12.92;54.45;97242.98;108416;1260;70730;-84
2023/11/06 09:01:40;;;;;;;0.20;0.20;;;;;;;12.94;53.79;97252.44;108384;1260;60713;-82
2023/11/06 09:04:09;;;;;;;1.30;0.40;;;;;;;12.97;53.36;97254.18;108569;1260;59142;-82
2023/11/06 09:06:40;;;;;;;0.80;0.60;;;;;;;12.99;53.42;97246.59;108442;1260;75121;-83
2023/11/06 09:09:09;;;;;;;0.40;0.30;;;;;;;13.03;53.07;97256.54;108428;1262;75703;-85
2023/11/06 09:11:38;;;;;;;1.00;0.50;;;;;;;13.07;52.74;97260.64;108451;1262;73561;-87
2023/11/06 09:14:05;;;;;;;0.70;0.40;;;;;;;13.09;52.54;97254.46;108443;1260;62173;-83
2023/11/06 09:16:35;;;;;;;1.20;0.40;;;;;;;13.13;51.67;97258.92;108576;1260;60616;-83
2023/11/06 09:19:03;;;;;;;2.60;0.40;;;;;;;13.16;50.77;97262.91;108500;1261;73358;-85
2023/11/06 09:21:30;;;;;;;0.40;0.30;;;;;;;13.21;50.69;97268.52;108673;1262;73045;-85
2023/11/06 09:23:58;;;;;;;0.60;0.50;;;;;;;13.26;50.55;97273.83;108623;1261;72512;-83
2023/11/06 09:26:25;;;;;;;0.60;0.40;;;;;;;13.31;49.95;97289.68;108584;1262;60831;-84
2023/11/06 09:28:54;;;;;;;0.60;0.30;;;;;;;13.36;49.02;97292.80;108609;1265;60102;-84
2023/11/06 09:31:22;;;;;;;3.20;1.00;;;;;;;13.42;48.55;97293.16;108617;1261;73627;-84
2023/11/06 09:33:52;;;;;;;0.80;0.40;;;;;;;13.47;48.43;97293.41;108529;1261;74365;-84
2023/11/06 09:36:19;;;;;;;0.80;0.60;;;;;;;13.52;48.02;97300.40;108506;1262;74896;-83
2023/11/06 09:38:47;;;;;;;0.30;0.30;;;;;;;13.60;47.36;97315.48;108601;1260;60034;-84
2023/11/06 09:41:15;;;;;;;0.30;0.30;;;;;;;13.69;46.66;97307.55;108533;1260;61120;-84
2023/11/06 09:43:42;;;;;;;1.40;0.90;;;;;;;13.79;46.52;97312.14;108497;1261;74567;-85
2023/11/06 09:46:10;;;;;;;0.80;0.40;;;;;;;13.90;45.72;97322.06;108584;1260;74153;-85
2023/11/06 09:48:38;;;;;;;0.40;0.40;;;;;;;14.00;45.59;97318.48;108806;1261;72834;-85
2023/11/06 09:51:13;;;;;;;2.10;0.40;;;;;;;14.11;45.43;97314.22;108728;1260;59132;-87
2023/11/06 09:53:41;;;;;;;0.30;0.30;;;;;;;14.22;45.73;97310.94;108689;1262;59260;-86
2023/11/06 09:56:10;;;;;;;0.70;0.40;;;;;;;14.33;45.67;97310.48;108525;1260;72929;-84
2023/11/06 09:58:38;;;;;;;0.50;0.30;;;;;;;14.48;45.16;97328.46;108547;1262;75456;-84
2023/11/06 10:01:07;;;;;;;0.40;0.40;;;;;;;14.58;44.49;97331.95;108499;1262;73646;-83
2023/11/06 10:03:38;;;;;;;2.70;0.70;;;;;;;14.67;44.27;97337.21;108240;1263;60349;-83
2023/11/06 10:06:07;;;;;;;1.20;0.40;;;;;;;14.69;44.36;97351.35;108521;1263;60893;-82
2023/11/06 10:08:35;;;;;;;1.30;0.40;;;;;;;14.74;44.16;97337.91;108560;1261;73937;-83
2023/11/06 10:11:06;;;;;;;5.10;0.70;;;;;;;14.77;44.24;97355.86;108673;1260;74356;-84
2023/11/06 10:14:04;;;;;;;0.60;0.40;;;;;;;14.82;44.22;97339.04;108655;1265;72617;-84
2023/11/06 10:16:31;;;;;;;0.60;0.40;;;;;;;14.91;44.65;97344.36;108398;1263;59198;-85
2023/11/06 10:19:14;;;;;;;2.80;0.30;;;;;;;15.01;44.37;97347.55;108568;1263;59276;-83
2023/11/06 10:21:41;;;;;;;3.70;0.50;;;;;;;15.11;44.31;97347.01;108741;1260;72473;-83
2023/11/06 10:24:11;;;;;;;1.30;0.40;;;;;;;15.12;44.38;97353.17;108582;1260;75359;-82
2023/11/06 10:26:39;;;;;;;1.60;0.30;;;;;;;15.12;44.34;97352.88;108421;1261;73538;-84
2023/11/06 10:29:07;;;;;;;0.80;0.30;;;;;;;15.09;44.69;97363.98;108496;1261;61437;-84
2023/11/06 10:31:37;;;;;;;0.40;0.40;;;;;;;15.05;44.63;97364.27;108591;1261;60119;-83
2023/11/06 10:34:22;;;;;;;0.60;0.30;;;;;;;14.99;44.79;97366.11;108681;1261;74484;-84
2023/11/06 10:37:13;;;;;;;0.70;0.60;;;;;;;14.96;45.10;97369.61;108521;1261;75232;-85
2023/11/06 10:39:56;;;;;;;0.60;0.50;;;;;;;14.91;45.19;97383.54;108114;1260;71395;-84
2023/11/06 10:42:23;;;;;;;0.30;0.30;;;;;;;14.85;45.12;97390.79;108562;1260;61353;-83
2023/11/06 10:44:58;;;;;;;0.30;0.30;;;;;;;14.80;45.18;97393.27;108577;1260;60981;-83
2023/11/06 10:47:33;;;;;;;0.90;0.50;;;;;;;14.78;45.44;97387.05;108563;1260;74690;-83
2023/11/06 10:50:07;;;;;;;0.60;0.60;;;;;;;14.74;45.58;97392.98;108632;1261;75250;-83
2023/11/06 10:52:35;;;;;;;0.80;0.40;;;;;;;14.74;45.81;97391.87;108568;1260;70790;-84
2023/11/06 10:55:02;;;;;;;0.90;0.50;;;;;;;14.72;45.75;97394.95;108463;1262;60308;-83
2023/11/06 10:57:38;;;;;;;0.60;0.40;;;;;;;14.72;45.88;97402.92;108569;1262;61311;-83
2023/11/06 11:00:11;;;;;;;0.90;0.40;;;;;;;14.71;45.76;97409.53;108456;1263;73934;-84
2023/11/06 11:03:01;;;;;;;1.80;0.40;;;;;;;14.67;45.81;97405.27;108430;1262;74419;-84
2023/11/06 11:05:33;;;;;;;0.90;0.50;;;;;;;14.61;46.36;97415.23;108212;1262;71476;-85
2023/11/06 11:08:03;;;;;;;1.60;0.50;;;;;;;14.55;46.90;97410.77;108182;1263;59674;-85
2023/11/06 11:10:31;;;;;;;1.50;0.70;;;;;;;14.48;47.38;97412.52;108193;1263;60632;-85
2023/11/06 11:13:02;;;;;;;0.70;0.40;;;;;;;14.43;47.75;97414.31;108432;1262;74855;-84
2023/11/06 11:15:31;;;;;;;0.70;0.50;;;;;;;14.38;48.26;97416.05;108293;1262;73337;-84
2023/11/06 11:18:16;;;;;;;1.50;0.80;;;;;;;14.35;48.68;97424.52;108342;1262;71782;-84
2023/11/06 11:20:52;;;;;;;0.90;0.80;;;;;;;14.30;49.11;97426.38;108560;1261;60977;-83
2023/11/06 11:23:39;;;;;;;0.80;0.70;;;;;;;14.25;49.11;97433.34;108423;1262;61330;-84
2023/11/06 11:26:09;;;;;;;1.30;1.10;;;;;;;14.21;49.45;97423.11;108186;1262;74880;-84
2023/11/06 11:28:55;;;;;;;1.20;0.70;;;;;;;14.18;49.58;97420.80;108263;1263;74327;-84
2023/11/06 11:31:35;;;;;;;2.10;0.90;;;;;;;14.18;49.95;97425.47;108419;1262;71894;-83
2023/11/06 11:34:25;;;;;;;1.10;1.00;;;;;;;14.24;50.27;97421.41;108394;1262;61188;-84
2023/11/06 11:36:55;;;;;;;1.10;0.80;;;;;;;14.34;50.29;97423.10;108516;1262;59992;-84
2023/11/06 11:39:23;;;;;;;1.20;0.80;;;;;;;14.44;50.37;97423.53;108705;1263;72866;-84